createdAt,value
2019-04-22T00:02:51.311Z,6.396179
2019-04-22T00:06:43.880Z,6.376038
2019-04-22T00:13:56.527Z,6.305542
2019-04-22T00:17:38.139Z,6.27533
2019-04-22T00:21:04.227Z,6.245117
2019-04-22T00:24:36.494Z,6.194763
2019-04-22T00:28:14.342Z,6.134338
2019-04-22T00:31:45.403Z,6.114197
2019-04-22T00:35:23.472Z,6.053772
2019-04-22T00:38:58.022Z,6.02356
2019-04-22T00:42:34.586Z,6.003418
2019-04-22T00:46:10.720Z,6.003418
2019-04-22T00:53:22.319Z,6.003418
2019-04-22T00:56:53.808Z,5.942993
2019-04-22T01:00:30.616Z,5.932922
2019-04-22T01:07:35.432Z,5.90271
2019-04-22T01:11:16.514Z,5.852356
2019-04-22T01:14:47.090Z,5.802002
2019-04-22T01:18:22.195Z,5.791931
2019-04-22T01:21:57.535Z,5.791931
2019-04-22T01:25:29.280Z,5.751648
2019-04-22T01:28:56.214Z,5.721436
2019-04-22T01:32:27.192Z,5.65094
2019-04-22T01:36:13.518Z,5.580444
2019-04-22T01:39:56.744Z,5.661011
2019-04-22T01:43:31.340Z,5.620728
2019-04-22T01:47:03.259Z,5.610657
2019-04-22T01:50:36.650Z,5.610657
2019-04-22T01:54:21.950Z,5.620728
2019-04-22T01:57:47.182Z,5.701294
2019-04-22T02:01:30.165Z,5.731506
2019-04-22T02:05:04.215Z,5.721436
2019-04-22T02:08:44.491Z,5.802002
2019-04-22T02:12:12.720Z,5.852356
2019-04-22T02:15:47.213Z,6.053772
2019-04-22T02:19:22.349Z,6.15448
2019-04-22T02:23:15.102Z,6.053772
2019-04-22T02:30:05.108Z,5.842285
2019-04-22T02:37:27.541Z,5.983276
2019-04-22T02:41:15.549Z,6.083984
2019-04-22T02:44:27.772Z,6.184692
2019-04-22T02:48:09.620Z,6.235046
2019-04-22T02:51:32.454Z,6.245117
2019-04-22T02:59:01.910Z,6.335754
2019-04-22T03:04:18.062Z,6.396179
2019-04-22T03:07:57.725Z,6.396179
2019-04-22T03:11:44.609Z,6.416321
2019-04-22T03:14:59.230Z,6.456604
2019-04-22T03:26:11.170Z,6.345825
2019-04-22T03:29:17.525Z,6.345825
2019-04-22T03:37:03.443Z,6.396179
2019-04-22T03:40:11.617Z,6.295471
2019-04-22T03:43:53.791Z,6.295471
2019-04-22T03:47:33.342Z,6.295471
2019-04-22T03:50:54.792Z,6.164551
2019-04-22T04:01:43.574Z,6.245117
2019-04-22T04:05:21.490Z,6.517029
2019-04-22T04:08:50.834Z,6.829224
2019-04-22T04:12:23.174Z,7.000427
2019-04-22T04:15:54.898Z,7.070923
2019-04-22T04:27:06.425Z,7.524109
2019-04-22T04:34:03.107Z,7.735596
2019-04-22T04:41:05.844Z,7.906799
2019-04-22T04:48:11.084Z,8.118286
2019-04-22T04:51:46.078Z,8.128357
2019-04-22T04:55:27.636Z,8.198853
2019-04-22T04:59:04.863Z,8.339844
2019-04-22T05:09:32.131Z,8.571472
2019-04-22T05:13:22.667Z,8.702393
2019-04-22T05:20:31.782Z,8.742676
2019-04-22T05:24:02.204Z,8.752747
2019-04-22T05:27:33.929Z,8.752747
2019-04-22T05:31:07.933Z,8.833313
2019-04-22T05:34:39.654Z,8.903809
2019-04-22T05:38:16.928Z,9.034729
2019-04-22T05:41:54.203Z,9.135437
2019-04-22T05:45:24.575Z,9.185791
2019-04-22T05:49:05.740Z,9.185791
2019-04-22T05:52:31.363Z,9.256287
2019-04-22T05:56:20.539Z,9.336853
2019-04-22T05:59:45.571Z,9.397278
2019-04-22T06:03:20.408Z,9.437561
2019-04-22T06:06:53.428Z,9.508057
2019-04-22T06:10:32.523Z,9.659119
2019-04-22T06:14:00.758Z,9.80011
2019-04-22T06:17:46.751Z,9.870605
2019-04-22T06:21:18.392Z,9.961243
2019-04-22T06:24:55.049Z,10.05188
2019-04-22T06:28:34.645Z,10.102234
2019-04-22T06:35:43.398Z,10.1828
2019-04-22T06:39:14.136Z,10.30365
2019-04-22T06:42:51.525Z,10.414429
2019-04-22T06:46:20.092Z,10.464783
2019-04-22T06:49:54.336Z,10.615845
2019-04-22T06:53:47.140Z,10.787048
2019-04-22T06:57:05.474Z,10.857544
2019-04-22T07:00:41.432Z,10.92804
2019-04-22T07:04:16.069Z,10.968323
2019-04-22T07:07:53.178Z,10.998535
2019-04-22T07:11:23.478Z,11.149597
2019-04-22T07:14:53.208Z,11.280518
2019-04-22T07:18:35.410Z,11.381226
2019-04-22T07:22:16.094Z,11.280518
2019-04-22T07:25:45.019Z,11.250305
2019-04-22T07:29:24.746Z,11.300659
2019-04-22T07:40:09.378Z,11.592712
2019-04-22T07:43:57.724Z,11.612854
2019-04-22T07:47:23.155Z,11.713562
2019-04-22T07:54:31.410Z,11.955261
2019-04-22T07:58:04.777Z,12.045898
2019-04-22T08:01:35.172Z,12.217102
2019-04-22T08:05:32.653Z,12.499084
2019-04-22T08:08:50.944Z,12.499084
2019-04-22T08:12:26.112Z,12.358093
2019-04-22T08:19:34.891Z,12.710571
2019-04-22T08:23:15.987Z,12.791138
2019-04-22T08:26:45.017Z,12.861633
2019-04-22T08:30:27.536Z,12.962341
2019-04-22T08:33:54.197Z,13.042908
2019-04-22T08:37:47.248Z,13.214111
2019-04-22T08:41:04.574Z,13.32489
2019-04-22T08:44:56.575Z,13.536377
2019-04-22T08:48:14.864Z,13.788147
2019-04-22T08:51:48.479Z,13.939209
2019-04-22T08:55:31.156Z,14.009705
2019-04-22T08:59:07.793Z,14.120483
2019-04-22T09:04:35.676Z,14.231262
2019-04-22T09:08:13.562Z,14.523315
2019-04-22T09:11:46.446Z,14.563599
2019-04-22T09:15:25.973Z,14.58374
2019-04-22T09:18:59.094Z,14.765015
2019-04-22T09:22:46.585Z,14.865723
2019-04-22T09:26:08.489Z,14.926147
2019-04-22T09:33:20.244Z,15.036926
2019-04-22T09:36:56.934Z,15.228271
2019-04-22T09:40:38.873Z,15.429688
2019-04-22T09:44:01.954Z,15.600891
2019-04-22T09:47:39.872Z,15.913086
2019-04-22T09:51:11.320Z,16.08429
2019-04-22T09:54:52.665Z,16.064148
2019-04-22T09:58:23.101Z,16.21521
2019-04-22T10:02:12.718Z,16.426697
2019-04-22T10:05:32.098Z,16.577759
2019-04-22T10:12:53.804Z,16.366272
2019-04-22T10:16:25.142Z,16.58783
2019-04-22T10:19:52.840Z,16.618042
2019-04-22T10:23:31.157Z,16.618042
2019-04-22T10:27:01.197Z,16.789246
2019-04-22T10:30:42.801Z,16.789246
2019-04-22T10:33:59.668Z,16.869812
2019-04-22T10:37:24.214Z,16.910095
2019-04-22T10:40:56.455Z,16.879883
2019-04-22T10:44:29.116Z,17.10144
2019-04-22T10:48:01.586Z,17.453918
2019-04-22T10:51:33.094Z,17.876892
2019-04-22T10:55:05.334Z,18.360291
2019-04-22T10:58:38.453Z,18.491211
